This is the latest recevied weather packets stored in our database for station/object KD4MBW. If no packets are shown the sender has not sent any weather packets the latest 10 day(s).
| Time | Temp. | Humidity | Pressure | Rain* | Wind** | Luminosity | Snow |
|---|---|---|---|---|---|---|---|
| 1777854681 | 20.56° C | 59% | 1017.8 hPa | 0 mm | - | 1 W/m² | - |
| 1777854378 | 20.56° C | 60% | 1017.7 hPa | 0 mm | - | 2 W/m² | - |
| 1777854076 | 21.11° C | 58% | 1017.6 hPa | 0 mm | - | 4 W/m² | - |
| 1777853768 | 21.11° C | 56% | 1017.5 hPa | 0 mm | - | 6 W/m² | - |
| 1777853464 | 21.67° C | 55% | 1017.5 hPa | 0 mm | - | 9 W/m² | - |
| 1777853162 | 21.67° C | 54% | 1017.4 hPa | 0 mm | - | 13 W/m² | - |
| 1777852859 | 21.67° C | 53% | 1017.3 hPa | 0 mm | - | 17 W/m² | - |
| 1777852557 | 22.22° C | 51% | 1017.4 hPa | 0 mm | - | 21 W/m² | - |
| 1777852253 | 22.22° C | 51% | 1017.5 hPa | 0 mm | - | 24 W/m² | - |
| 1777851951 | 22.22° C | 51% | 1017.3 hPa | 0 mm | - | 28 W/m² | - |
| 1777851649 | 22.78° C | 50% | 1017.6 hPa | 0 mm | - | 34 W/m² | - |
| 1777851345 | 23.89° C | 37% | 1017.6 hPa | 0 mm | - | 39 W/m² | - |
| 1777851041 | 23.89° C | 36% | 1017.6 hPa | 0 mm | - | 46 W/m² | - |
| 1777850738 | 23.89° C | 35% | 1017.3 hPa | 0 mm | - | 53 W/m² | - |
| 1777850436 | 23.89° C | 34% | 1017.3 hPa | 0 mm | - | 62 W/m² | - |
| 1777850134 | 23.89° C | 37% | 1017.5 hPa | 0 mm | - | 71 W/m² | - |
| 1777849830 | 23.89° C | 37% | 1017.4 hPa | 0 mm | - | 82 W/m² | - |
| 1777849526 | 23.89° C | 35% | 1017.4 hPa | 0 mm | - | 93 W/m² | - |
| 1777849224 | 23.89° C | 36% | 1017.5 hPa | 0 mm | - | 104 W/m² | - |
| 1777848921 | 24.44° C | 35% | 1017.4 hPa | 0 mm | - | 115 W/m² | - |
| 1777848615 | 24.44° C | 35% | 1017.2 hPa | 0 mm | - | 128 W/m² | - |
| 1777848313 | 24.44° C | 35% | 1017.4 hPa | 0 mm | - | 142 W/m² | - |
| 1777848011 | 24.44° C | 36% | 1017.3 hPa | 0 mm | - | 157 W/m² | - |
| 1777847709 | 25° C | 34% | 1017.2 hPa | 0 mm | - | 172 W/m² | - |
| 1777847405 | 24.44° C | 34% | 1017.3 hPa | 0 mm | - | 187 W/m² | - |
* Rain latest hour (hover to see other rain measurements)
** Current wind speed in m/s (hover to see current wind gust speed)